createdAt,value
2018-09-11T00:01:48.724Z,6.33
2018-09-11T00:04:15.963Z,6.07
2018-09-11T00:06:43.261Z,6.97
2018-09-11T00:09:12.268Z,7.00
2018-09-11T00:11:39.762Z,7.60
2018-09-11T00:14:07.010Z,9.27
2018-09-11T00:16:36.290Z,7.20
2018-09-11T00:21:53.692Z,7.10
2018-09-11T00:24:20.944Z,4.40
2018-09-11T00:26:49.059Z,7.27
2018-09-11T00:29:16.311Z,6.77
2018-09-11T00:31:43.595Z,7.43
2018-09-11T00:34:10.920Z,7.20
2018-09-11T00:36:38.248Z,8.53
2018-09-11T00:39:06.002Z,6.43
2018-09-11T00:41:33.331Z,8.30
2018-09-11T00:44:00.580Z,6.93
2018-09-11T00:46:27.839Z,7.10
2018-09-11T00:48:55.067Z,9.43
2018-09-11T00:51:29.034Z,7.90
2018-09-11T00:53:56.258Z,6.67
2018-09-11T00:56:23.513Z,8.27
2018-09-11T00:58:51.083Z,10.37
2018-09-11T01:01:18.344Z,8.23
2018-09-11T01:03:45.603Z,7.43
2018-09-11T01:06:13.191Z,6.73
2018-09-11T01:08:42.451Z,8.23
2018-09-11T01:11:10.033Z,6.87
2018-09-11T01:13:37.462Z,9.00
2018-09-11T01:16:05.562Z,7.63
2018-09-11T01:18:32.803Z,10.57
2018-09-11T01:21:00.071Z,10.43
2018-09-11T01:23:27.315Z,6.47
2018-09-11T01:25:54.588Z,12.13
2018-09-11T01:28:21.832Z,6.90
2018-09-11T01:30:49.120Z,7.40
2018-09-11T01:33:16.354Z,7.73
2018-09-11T01:35:43.604Z,7.00
2018-09-11T01:38:10.871Z,8.57
2018-09-11T01:40:38.111Z,6.33
2018-09-11T01:43:05.460Z,6.47
2018-09-11T01:45:32.713Z,6.73
2018-09-11T01:47:59.983Z,6.37
2018-09-11T01:50:27.195Z,7.13
2018-09-11T01:52:54.472Z,10.97
2018-09-11T01:55:21.708Z,8.23
2018-09-11T01:57:48.980Z,6.07
2018-09-11T02:00:21.878Z,10.83
2018-09-11T02:02:58.890Z,6.57
2018-09-11T02:05:26.157Z,5.93
2018-09-11T02:07:53.447Z,11.03
2018-09-11T02:10:20.688Z,7.63
2018-09-11T02:12:47.946Z,10.77
2018-09-11T02:15:15.272Z,9.90
2018-09-11T02:17:42.594Z,8.23
2018-09-11T02:20:09.912Z,8.80
2018-09-11T02:22:37.182Z,4.87
2018-09-11T02:25:04.789Z,8.87
2018-09-11T02:27:32.092Z,6.07
2018-09-11T02:29:59.326Z,7.30
2018-09-11T02:32:26.602Z,6.67
2018-09-11T02:34:53.835Z,7.03
2018-09-11T02:37:21.105Z,5.40
2018-09-11T02:39:48.358Z,9.53
2018-09-11T02:42:15.619Z,5.70
2018-09-11T02:44:42.846Z,6.73
2018-09-11T02:47:10.634Z,7.27
2018-09-11T02:49:37.880Z,6.50
2018-09-11T02:52:05.566Z,7.57
2018-09-11T02:54:32.822Z,6.67
2018-09-11T02:57:01.839Z,7.70
2018-09-11T02:59:29.073Z,7.13
2018-09-11T03:01:56.342Z,7.40
2018-09-11T03:04:23.625Z,5.47
2018-09-11T03:06:50.860Z,9.27
2018-09-11T03:09:18.599Z,8.50
2018-09-11T03:11:45.891Z,7.93
2018-09-11T03:14:13.155Z,7.97
2018-09-11T03:16:40.404Z,10.63
2018-09-11T03:19:09.880Z,6.73
2018-09-11T03:21:38.134Z,6.03
2018-09-11T03:24:06.275Z,6.60
2018-09-11T03:26:33.567Z,5.13
2018-09-11T03:29:00.891Z,6.77
2018-09-11T03:31:28.130Z,4.90
2018-09-11T03:36:29.378Z,6.13
2018-09-11T03:38:56.640Z,5.43
2018-09-11T03:41:23.928Z,7.40
2018-09-11T03:43:51.164Z,7.53
2018-09-11T03:46:18.408Z,7.83
2018-09-11T03:48:45.684Z,5.47
2018-09-11T03:51:12.972Z,5.43
2018-09-11T03:53:40.231Z,7.13
2018-09-11T03:56:07.461Z,5.87
2018-09-11T03:58:34.720Z,7.43
2018-09-11T04:01:02.003Z,5.10
2018-09-11T04:03:29.278Z,6.83
2018-09-11T04:05:56.531Z,4.00
2018-09-11T04:08:23.791Z,5.20
2018-09-11T04:10:51.171Z,5.63
2018-09-11T04:13:18.461Z,11.33
2018-09-11T04:15:45.703Z,5.30
2018-09-11T04:18:12.956Z,6.87
2018-09-11T04:20:40.232Z,6.20
2018-09-11T04:23:07.618Z,7.30
2018-09-11T04:25:34.912Z,5.43
2018-09-11T04:28:02.268Z,14.30
2018-09-11T04:30:29.663Z,7.93
2018-09-11T04:32:57.028Z,6.17
2018-09-11T04:35:24.373Z,7.67
2018-09-11T04:37:51.914Z,5.93
2018-09-11T04:40:19.419Z,4.80
2018-09-11T04:42:46.852Z,8.30
2018-09-11T04:45:14.299Z,7.87
2018-09-11T04:47:41.660Z,6.37
2018-09-11T04:50:09.760Z,8.30
2018-09-11T04:52:37.186Z,8.13
2018-09-11T04:55:05.151Z,7.50
2018-09-11T04:57:32.564Z,5.67
2018-09-11T04:59:59.945Z,6.60
2018-09-11T05:02:27.345Z,7.67
2018-09-11T05:07:46.906Z,8.40
2018-09-11T05:10:14.750Z,6.87
2018-09-11T05:12:42.120Z,6.57
2018-09-11T05:15:09.631Z,7.97
2018-09-11T05:17:36.985Z,9.37
2018-09-11T05:20:04.423Z,7.17
2018-09-11T05:22:32.563Z,6.70
2018-09-11T05:24:59.895Z,5.00
2018-09-11T05:27:27.468Z,7.00
2018-09-11T05:29:54.909Z,6.70
2018-09-11T05:32:22.331Z,6.73
2018-09-11T05:34:49.704Z,7.00
2018-09-11T05:37:17.715Z,8.53
2018-09-11T05:39:45.118Z,6.50
2018-09-11T05:42:13.507Z,8.43
2018-09-11T05:44:40.857Z,9.90
2018-09-11T05:47:08.366Z,7.57
2018-09-11T05:49:35.694Z,8.27
2018-09-11T05:52:04.427Z,9.63
2018-09-11T05:54:32.513Z,7.43
2018-09-11T05:57:00.782Z,10.67
2018-09-11T05:59:28.163Z,8.93
2018-09-11T06:01:55.657Z,6.90
2018-09-11T06:04:23.007Z,10.67
2018-09-11T06:06:50.377Z,9.53
2018-09-11T06:09:17.767Z,12.40
2018-09-11T06:11:45.107Z,11.80
2018-09-11T06:14:12.448Z,7.60
2018-09-11T06:16:39.824Z,9.30
2018-09-11T06:19:07.169Z,8.07
2018-09-11T06:21:34.511Z,12.87
2018-09-11T06:24:01.855Z,6.43
2018-09-11T06:26:29.194Z,8.20
2018-09-11T06:28:57.072Z,7.47
2018-09-11T06:31:42.932Z,9.33
2018-09-11T06:34:10.271Z,6.77
2018-09-11T06:36:37.928Z,11.43
2018-09-11T06:39:06.865Z,9.23
2018-09-11T06:41:34.176Z,10.47
2018-09-11T06:44:01.591Z,11.27
2018-09-11T06:46:28.990Z,10.50
2018-09-11T06:48:56.341Z,10.60
2018-09-11T06:51:23.942Z,5.23
2018-09-11T06:53:51.286Z,8.83
2018-09-11T06:56:19.375Z,8.10
2018-09-11T06:58:46.811Z,9.50
2018-09-11T07:01:14.689Z,5.50
2018-09-11T07:03:42.140Z,8.23
2018-09-11T07:06:09.440Z,6.50
2018-09-11T07:08:36.819Z,7.03
2018-09-11T07:11:04.108Z,6.87
2018-09-11T07:13:31.412Z,6.60
2018-09-11T07:15:58.739Z,7.83
2018-09-11T07:18:26.075Z,6.23
2018-09-11T07:20:53.412Z,3.10
2018-09-11T07:23:20.789Z,3.63
2018-09-11T07:25:48.131Z,3.57
2018-09-11T07:28:15.603Z,5.30
2018-09-11T07:30:42.937Z,5.30
2018-09-11T07:33:10.227Z,4.27
2018-09-11T07:35:37.551Z,4.53
2018-09-11T07:38:04.942Z,9.00
2018-09-11T07:40:32.338Z,4.70
2018-09-11T07:43:00.453Z,4.30
2018-09-11T07:45:27.831Z,4.30
2018-09-11T07:47:55.181Z,3.27
2018-09-11T07:50:22.538Z,5.20
2018-09-11T07:52:51.977Z,5.20
2018-09-11T07:55:19.309Z,2.57
2018-09-11T07:57:46.696Z,5.03
2018-09-11T08:00:14.004Z,4.73
2018-09-11T08:02:41.293Z,3.83
2018-09-11T08:05:08.723Z,1.97
2018-09-11T08:07:36.131Z,1.80
2018-09-11T08:10:03.541Z,5.87
2018-09-11T08:12:30.950Z,3.63
2018-09-11T08:14:58.268Z,3.40
2018-09-11T08:17:26.375Z,4.35
2018-09-11T08:19:53.645Z,1.47
2018-09-11T08:22:21.037Z,2.10
2018-09-11T08:24:48.396Z,1.73
2018-09-11T08:27:15.772Z,3.23
2018-09-11T08:29:43.096Z,2.40
2018-09-11T08:32:10.412Z,4.22
2018-09-11T08:34:37.770Z,1.60
2018-09-11T08:37:05.118Z,2.43
2018-09-11T08:39:33.040Z,4.70
2018-09-11T08:42:00.408Z,2.80
2018-09-11T08:44:27.723Z,6.72
2018-09-11T08:47:03.199Z,2.15
2018-09-11T08:49:44.847Z,1.95
2018-09-11T08:52:12.279Z,3.50
2018-09-11T08:54:39.590Z,2.27
2018-09-11T08:57:06.886Z,2.80
2018-09-11T08:59:34.416Z,3.43
2018-09-11T09:02:01.795Z,4.17
2018-09-11T09:04:29.110Z,1.50
2018-09-11T09:06:56.578Z,5.78
2018-09-11T09:09:30.721Z,5.55
2018-09-11T09:11:58.192Z,2.83
2018-09-11T09:14:25.559Z,1.98
2018-09-11T09:16:52.951Z,4.10
2018-09-11T09:19:20.319Z,2.85
2018-09-11T09:21:47.719Z,3.47
2018-09-11T09:24:15.821Z,2.25
2018-09-11T09:26:43.208Z,3.40
2018-09-11T09:29:10.610Z,1.75
2018-09-11T09:31:38.021Z,1.92
2018-09-11T09:34:05.499Z,2.77
2018-09-11T09:36:32.959Z,1.60
2018-09-11T09:39:00.275Z,4.80
2018-09-11T09:41:28.334Z,4.25
2018-09-11T09:43:55.677Z,3.75
2018-09-11T09:46:23.056Z,4.17
2018-09-11T09:48:50.399Z,2.72
2018-09-11T09:51:17.920Z,3.42
2018-09-11T09:53:45.318Z,1.82
2018-09-11T09:56:12.746Z,2.07
2018-09-11T09:58:40.128Z,3.03
2018-09-11T10:01:13.093Z,4.95
2018-09-11T10:03:40.407Z,1.40
2018-09-11T10:06:22.283Z,1.98
2018-09-11T10:09:04.091Z,3.90
2018-09-11T10:11:32.070Z,1.17
2018-09-11T10:13:59.429Z,2.72
2018-09-11T10:16:27.212Z,1.30
2018-09-11T10:18:54.528Z,5.80
2018-09-11T10:21:21.918Z,3.40
2018-09-11T10:23:49.289Z,4.35
2018-09-11T10:26:17.268Z,2.30
2018-09-11T10:28:44.650Z,2.65
2018-09-11T10:31:13.527Z,2.72
2018-09-11T10:33:41.592Z,2.83
2018-09-11T10:36:08.971Z,3.25
2018-09-11T10:38:36.398Z,3.58
2018-09-11T10:41:03.742Z,2.08
2018-09-11T10:43:31.094Z,2.62
2018-09-11T10:45:58.459Z,3.25
2018-09-11T10:48:25.801Z,2.00
2018-09-11T10:50:53.087Z,2.20
2018-09-11T10:53:21.125Z,4.50
2018-09-11T10:55:48.412Z,2.40
2018-09-11T10:58:17.235Z,2.60
2018-09-11T11:00:44.650Z,5.83
2018-09-11T11:03:12.108Z,3.58
2018-09-11T11:05:39.436Z,2.62
2018-09-11T11:08:06.826Z,3.15
2018-09-11T11:10:34.221Z,3.95
2018-09-11T11:13:02.190Z,2.95
2018-09-11T11:15:30.728Z,3.02
2018-09-11T11:17:58.304Z,2.55
2018-09-11T11:20:25.728Z,7.80
2018-09-11T11:22:53.094Z,2.47
2018-09-11T11:25:20.491Z,4.83
2018-09-11T11:27:47.853Z,3.83
2018-09-11T11:30:15.986Z,4.25
2018-09-11T11:32:43.357Z,3.30
2018-09-11T11:35:10.704Z,2.50
2018-09-11T11:37:38.089Z,2.55
2018-09-11T11:40:05.652Z,1.65
2018-09-11T11:42:33.067Z,2.37
2018-09-11T11:45:00.536Z,3.17
2018-09-11T11:47:28.747Z,3.37
2018-09-11T11:49:56.153Z,2.02
2018-09-11T11:52:24.143Z,3.55
2018-09-11T11:54:51.594Z,2.95
2018-09-11T11:57:18.930Z,4.03
2018-09-11T11:59:46.324Z,4.60
2018-09-11T12:02:13.720Z,4.60
2018-09-11T12:04:43.870Z,2.98
2018-09-11T12:07:11.495Z,2.55
2018-09-11T12:09:38.926Z,2.20
2018-09-11T12:12:06.330Z,2.95
2018-09-11T12:14:33.868Z,6.85
2018-09-11T12:17:01.243Z,3.25
2018-09-11T12:19:28.596Z,2.45
2018-09-11T12:21:55.937Z,3.92
2018-09-11T12:24:23.286Z,4.42
2018-09-11T12:26:50.652Z,4.28
2018-09-11T12:29:17.978Z,4.62
2018-09-11T12:31:45.356Z,4.08
2018-09-11T12:34:12.772Z,3.87
2018-09-11T12:36:40.068Z,8.20
2018-09-11T12:39:08.101Z,2.08
2018-09-11T12:41:36.080Z,2.02
2018-09-11T12:44:03.721Z,5.53
2018-09-11T12:46:31.611Z,3.45
2018-09-11T12:48:58.447Z,5.42
2018-09-11T12:51:25.796Z,8.60
2018-09-11T12:53:53.143Z,5.03
2018-09-11T12:56:20.576Z,4.15
2018-09-11T12:58:47.969Z,2.65
2018-09-11T13:01:15.460Z,4.67
2018-09-11T13:03:42.789Z,2.92
2018-09-11T13:06:10.168Z,2.42
2018-09-11T13:08:37.599Z,8.03
2018-09-11T13:11:04.953Z,8.15
2018-09-11T13:13:32.351Z,3.58
2018-09-11T13:15:59.725Z,7.50
2018-09-11T13:18:27.128Z,1.62
2018-09-11T13:20:54.528Z,2.77
2018-09-11T13:23:21.925Z,5.05
2018-09-11T13:25:49.271Z,2.90
2018-09-11T13:28:16.693Z,4.20
2018-09-11T13:30:44.037Z,2.55
2018-09-11T13:33:11.375Z,2.27
2018-09-11T13:35:38.883Z,2.85
2018-09-11T13:38:06.811Z,2.45
2018-09-11T13:40:34.156Z,8.70
2018-09-11T13:43:01.650Z,2.52
2018-09-11T13:45:29.233Z,3.25
2018-09-11T13:47:56.721Z,3.83
2018-09-11T13:50:24.072Z,2.62
2018-09-11T13:52:51.588Z,2.20
2018-09-11T13:55:19.082Z,3.75
2018-09-11T13:57:46.609Z,2.27
2018-09-11T14:00:14.287Z,2.52
2018-09-11T14:02:41.801Z,2.65
2018-09-11T14:05:09.467Z,4.40
2018-09-11T14:07:37.044Z,3.58
2018-09-11T14:10:04.569Z,3.00
2018-09-11T14:12:31.970Z,4.00
2018-09-11T14:14:59.496Z,6.78
2018-09-11T14:17:27.691Z,2.00
2018-09-11T14:19:55.259Z,3.33
2018-09-11T14:22:22.986Z,2.35
2018-09-11T14:24:50.443Z,3.17
2018-09-11T14:27:18.098Z,4.17
2018-09-11T14:29:45.920Z,1.75
2018-09-11T14:32:13.338Z,1.65
2018-09-11T14:34:41.134Z,3.17
2018-09-11T14:37:08.558Z,2.77
2018-09-11T14:39:35.900Z,1.20
2018-09-11T14:42:03.297Z,1.30
2018-09-11T14:44:30.722Z,2.65
2018-09-11T14:46:58.771Z,2.35
2018-09-11T14:49:26.083Z,2.85
2018-09-11T14:51:53.516Z,2.33
2018-09-11T14:54:21.734Z,2.65
2018-09-11T14:56:49.195Z,4.78
2018-09-11T14:59:16.578Z,3.25
2018-09-11T15:01:43.938Z,3.10
2018-09-11T15:04:11.452Z,1.82
2018-09-11T15:06:38.845Z,4.67
2018-09-11T15:09:15.694Z,2.85
2018-09-11T15:11:43.035Z,2.22
2018-09-11T15:14:10.505Z,2.22
2018-09-11T15:16:38.297Z,2.12
2018-09-11T15:19:06.540Z,3.27
2018-09-11T15:24:08.207Z,1.85
2018-09-11T15:26:35.773Z,3.12
2018-09-11T15:29:03.438Z,3.17
2018-09-11T15:31:30.836Z,2.62
2018-09-11T15:33:58.425Z,1.98
2018-09-11T15:36:25.848Z,2.25
2018-09-11T15:38:53.243Z,3.60
2018-09-11T15:41:20.985Z,5.60
2018-09-11T15:43:48.488Z,2.22
2018-09-11T15:46:16.978Z,1.55
2018-09-11T15:48:44.344Z,2.40
2018-09-11T15:51:13.059Z,2.85
2018-09-11T15:53:40.400Z,2.00
2018-09-11T15:56:07.907Z,1.42
2018-09-11T15:58:35.918Z,2.47
2018-09-11T16:01:04.095Z,2.22
2018-09-11T16:03:31.458Z,2.62
2018-09-11T16:05:58.898Z,1.67
2018-09-11T16:08:26.205Z,2.02
2018-09-11T16:11:06.691Z,2.87
2018-09-11T16:13:34.079Z,3.02
2018-09-11T16:16:01.409Z,1.82
2018-09-11T16:18:28.727Z,2.00
2018-09-11T16:20:56.380Z,3.25
2018-09-11T16:23:23.743Z,2.45
2018-09-11T16:25:51.219Z,3.47
2018-09-11T16:28:18.616Z,4.08
2018-09-11T16:30:46.019Z,2.60
2018-09-11T16:33:13.353Z,4.40
2018-09-11T16:35:40.731Z,2.37
2018-09-11T16:38:08.322Z,2.95
2018-09-11T16:40:35.585Z,3.55
2018-09-11T16:43:03.105Z,1.50
2018-09-11T16:45:30.522Z,2.52
2018-09-11T16:48:00.137Z,2.27
2018-09-11T16:50:27.539Z,2.50
2018-09-11T16:52:54.895Z,2.25
2018-09-11T16:55:22.275Z,2.70
2018-09-11T16:57:49.926Z,4.80
2018-09-11T17:00:17.281Z,2.95
2018-09-11T17:02:44.737Z,4.15
2018-09-11T17:05:12.713Z,1.95
2018-09-11T17:07:44.695Z,6.75
2018-09-11T17:10:28.305Z,1.98
2018-09-11T17:12:55.686Z,5.72
2018-09-11T17:15:24.570Z,4.67
2018-09-11T17:17:53.123Z,2.62
2018-09-11T17:20:21.462Z,5.97
2018-09-11T17:22:52.129Z,2.27
2018-09-11T17:25:21.094Z,2.42
2018-09-11T17:27:48.767Z,2.27
2018-09-11T17:30:16.338Z,2.10
2018-09-11T17:32:44.589Z,4.72
2018-09-11T17:35:13.016Z,2.75
2018-09-11T17:37:41.220Z,4.30
2018-09-11T17:40:12.387Z,4.35
2018-09-11T17:42:40.226Z,4.22
2018-09-11T17:45:23.425Z,3.20
2018-09-11T17:47:51.667Z,3.37
2018-09-11T17:50:19.358Z,2.40
2018-09-11T17:52:46.916Z,3.47
2018-09-11T17:55:14.373Z,3.05
2018-09-11T17:57:43.309Z,6.50
2018-09-11T18:00:12.764Z,3.50
2018-09-11T18:02:40.352Z,6.00
2018-09-11T18:05:07.684Z,3.93
2018-09-11T18:07:35.070Z,4.77
2018-09-11T18:10:02.361Z,4.33
2018-09-11T18:12:30.167Z,5.20
2018-09-11T18:14:58.655Z,6.57
2018-09-11T18:17:26.096Z,3.30
2018-09-11T18:19:53.525Z,9.30
2018-09-11T18:22:23.593Z,4.77
2018-09-11T18:24:52.288Z,3.07
2018-09-11T18:27:19.951Z,2.33
2018-09-11T18:29:47.297Z,4.93
2018-09-11T18:32:14.688Z,5.10
2018-09-11T18:34:42.195Z,3.87
2018-09-11T18:37:09.654Z,3.93
2018-09-11T18:39:37.074Z,2.40
2018-09-11T18:42:08.935Z,3.67
2018-09-11T18:44:37.497Z,3.57
2018-09-11T18:47:05.371Z,9.33
2018-09-11T18:49:36.767Z,2.53
2018-09-11T18:52:04.786Z,4.43
2018-09-11T18:54:32.651Z,2.17
2018-09-11T18:57:00.688Z,2.50
2018-09-11T18:59:28.385Z,3.97
2018-09-11T19:01:55.845Z,5.30
2018-09-11T19:04:23.659Z,2.50
2018-09-11T19:06:51.393Z,3.40
2018-09-11T19:09:18.821Z,2.27
2018-09-11T19:11:46.691Z,2.50
2018-09-11T19:14:14.071Z,2.63
2018-09-11T19:16:41.710Z,3.63
2018-09-11T19:19:10.057Z,6.83
2018-09-11T19:21:38.379Z,2.00
2018-09-11T19:24:05.809Z,3.43
2018-09-11T19:26:33.181Z,6.73
2018-09-11T19:29:00.597Z,2.93
2018-09-11T19:31:28.136Z,3.33
2018-09-11T19:33:55.754Z,4.47
2018-09-11T19:36:23.578Z,5.93
2018-09-11T19:38:51.058Z,7.27
2018-09-11T19:41:18.770Z,5.07
2018-09-11T19:43:46.394Z,3.47
2018-09-11T19:46:14.183Z,3.53
2018-09-11T19:48:41.906Z,5.17
2018-09-11T19:51:09.594Z,4.90
2018-09-11T19:53:37.774Z,5.60
2018-09-11T19:56:06.039Z,3.47
2018-09-11T19:58:33.358Z,1.93
2018-09-11T20:01:01.030Z,2.37
2018-09-11T20:03:29.053Z,3.23
2018-09-11T20:05:56.769Z,3.03
2018-09-11T20:08:25.563Z,7.00
2018-09-11T20:10:53.155Z,3.90
2018-09-11T20:13:20.576Z,5.20
2018-09-11T20:15:48.119Z,2.83
2018-09-11T20:18:15.566Z,4.53
2018-09-11T20:20:43.476Z,6.00
2018-09-11T20:23:11.398Z,4.27
2018-09-11T20:25:38.623Z,1.50
2018-09-11T20:28:06.379Z,6.50
2018-09-11T20:30:33.677Z,4.70
2018-09-11T20:33:00.941Z,3.40
2018-09-11T20:35:28.180Z,5.27
2018-09-11T20:37:55.781Z,5.23
2018-09-11T20:40:23.023Z,4.90
2018-09-11T20:42:51.886Z,7.27
2018-09-11T20:45:19.185Z,2.40
2018-09-11T20:47:46.429Z,3.37
2018-09-11T20:50:13.688Z,2.93
2018-09-11T20:52:41.217Z,4.27
2018-09-11T20:55:08.537Z,4.40
2018-09-11T20:57:36.328Z,3.80
2018-09-11T21:00:03.739Z,2.47
2018-09-11T21:02:30.970Z,2.47
2018-09-11T21:04:58.199Z,7.67
2018-09-11T21:07:25.535Z,3.27
2018-09-11T21:09:52.798Z,4.10
2018-09-11T21:12:20.079Z,3.10
2018-09-11T21:14:47.363Z,4.00
2018-09-11T21:17:14.644Z,2.33
2018-09-11T21:19:41.949Z,4.70
2018-09-11T21:22:09.221Z,3.83
2018-09-11T21:24:36.516Z,3.93
2018-09-11T21:27:03.771Z,3.83
2018-09-11T21:29:36.830Z,4.20
2018-09-11T21:32:13.144Z,2.97
2018-09-11T21:34:40.412Z,2.57
2018-09-11T21:37:07.664Z,7.30
2018-09-11T21:39:34.893Z,5.93
2018-09-11T21:42:02.130Z,3.97
2018-09-11T21:44:29.407Z,2.63
2018-09-11T21:46:56.650Z,5.90
2018-09-11T21:49:23.992Z,3.63
2018-09-11T21:51:51.596Z,2.90
2018-09-11T21:54:18.847Z,4.33
2018-09-11T21:56:46.093Z,4.37
2018-09-11T21:59:13.350Z,5.27
2018-09-11T22:01:43.490Z,4.93
2018-09-11T22:04:10.767Z,4.17
2018-09-11T22:06:38.751Z,4.60
2018-09-11T22:09:22.488Z,3.57
2018-09-11T22:11:49.728Z,4.97
2018-09-11T22:14:17.015Z,2.43
2018-09-11T22:16:44.228Z,3.63
2018-09-11T22:19:11.600Z,3.80
2018-09-11T22:21:38.835Z,5.20
2018-09-11T22:24:06.126Z,6.17
2018-09-11T22:26:33.920Z,3.73
2018-09-11T22:29:01.183Z,5.00
2018-09-11T22:31:28.716Z,5.73
2018-09-11T22:33:56.028Z,4.53
2018-09-11T22:36:23.535Z,4.77
2018-09-11T22:38:50.803Z,5.30
2018-09-11T22:41:18.072Z,6.73
2018-09-11T22:43:45.349Z,6.57
2018-09-11T22:46:12.648Z,3.97
2018-09-11T22:48:39.960Z,2.17
2018-09-11T22:51:07.332Z,3.33
2018-09-11T22:53:34.699Z,3.23
2018-09-11T22:56:01.956Z,5.07
2018-09-11T22:58:29.457Z,3.03
2018-09-11T23:00:56.769Z,3.20
2018-09-11T23:03:24.012Z,3.23
2018-09-11T23:05:51.307Z,6.27
2018-09-11T23:08:18.713Z,3.73
2018-09-11T23:10:45.988Z,2.93
2018-09-11T23:13:13.250Z,6.57
2018-09-11T23:15:40.544Z,3.80
2018-09-11T23:18:07.979Z,4.80
2018-09-11T23:20:35.278Z,3.67
2018-09-11T23:23:02.567Z,4.13
2018-09-11T23:25:29.864Z,3.50
2018-09-11T23:27:57.116Z,6.23
2018-09-11T23:30:24.363Z,3.07
2018-09-11T23:32:51.617Z,5.20
2018-09-11T23:35:18.864Z,4.23
2018-09-11T23:37:46.118Z,2.30
2018-09-11T23:40:13.547Z,4.90
2018-09-11T23:42:40.852Z,2.97
2018-09-11T23:45:08.138Z,3.87
2018-09-11T23:47:35.367Z,2.70
2018-09-11T23:50:02.659Z,4.07
2018-09-11T23:52:29.889Z,4.20
2018-09-11T23:54:57.179Z,4.87
2018-09-11T23:57:24.445Z,3.50
2018-09-11T23:59:51.740Z,4.93
